Time;durP1;ratioP1;P1;durP2;ratioP2;P2;SDS_P1;SDS_P2;PMS_P1;PMS_P2;Temp;Humidity;BMP_temperature;BMP_pressure;BME280_temperature;BME280_humidity;BME280_pressure;Samples;Min_cycle;Max_cycle;Signal;HPM_P1;HPM_P2
2021/01/12 00:01:40;;;;;;;1999.90;999.90;;;;;;;3.10;63.88;100415.66;15839260;28;20048;-55
2021/01/12 00:09:13;;;;;;;1999.90;999.90;;;;;;;3.25;63.46;100400.91;15808660;28;20032;-57
2021/01/12 00:16:46;;;;;;;1999.90;999.90;;;;;;;3.09;64.08;100405.75;15832985;28;20047;-56
2021/01/12 00:24:20;;;;;;;1999.90;999.90;;;;;;;3.19;63.80;100380.00;15802180;28;20044;-53
2021/01/12 00:31:54;;;;;;;1999.90;999.90;;;;;;;3.27;64.07;100382.13;15800305;28;20047;-57
2021/01/12 00:39:27;;;;;;;1999.90;999.90;;;;;;;3.16;64.30;100351.09;15827927;28;20047;-58
2021/01/12 00:47:00;;;;;;;1999.90;999.90;;;;;;;3.29;64.26;100357.84;15815962;28;20085;-54
2021/01/12 00:54:33;;;;;;;1999.90;999.90;;;;;;;3.33;64.67;100330.50;15814336;28;20055;-57
2021/01/12 01:02:06;;;;;;;1999.90;999.90;;;;;;;3.43;64.30;100325.66;15833175;28;20083;-57
2021/01/12 01:09:39;;;;;;;1999.90;999.90;;;;;;;3.58;64.43;100312.81;15857761;28;20438;-52
2021/01/12 01:17:13;;;;;;;1999.90;999.90;;;;;;;3.62;64.32;100291.78;15842648;28;20066;-57
2021/01/12 01:24:46;;;;;;;1999.90;999.90;;;;;;;3.43;65.05;100289.00;15845986;28;20043;-54
2021/01/12 01:32:20;;;;;;;1999.90;999.90;;;;;;;3.47;65.33;100276.25;15818166;28;20051;-56
2021/01/12 01:39:53;;;;;;;1999.90;999.90;;;;;;;3.63;65.34;100274.09;15828538;28;20055;-54
2021/01/12 01:47:26;;;;;;;1999.90;999.90;;;;;;;3.53;67.40;100258.50;15853651;28;20105;-56
2021/01/12 01:55:02;;;;;;;1999.90;999.90;;;;;;;3.25;69.44;100254.78;15845519;28;20481;-55
2021/01/12 02:02:44;;;;;;;1999.90;999.90;;;;;;;3.50;70.07;100237.03;15851107;28;20126;-57
2021/01/12 02:10:24;;;;;;;1999.90;999.90;;;;;;;3.16;73.27;100223.44;15804954;28;20477;-57
2021/01/12 02:17:58;;;;;;;1999.90;999.90;;;;;;;2.71;76.07;100219.28;15828025;28;20036;-57
2021/01/12 02:25:35;;;;;;;1999.90;999.90;;;;;;;2.69;77.05;100202.25;15809600;28;20044;-60
2021/01/12 02:33:08;;;;;;;1999.90;999.90;;;;;;;2.49;78.05;100184.84;15846775;28;20073;-61
2021/01/12 02:40:42;;;;;;;1999.90;999.90;;;;;;;2.53;78.50;100168.56;15834500;28;20044;-59
2021/01/12 02:48:18;;;;;;;1999.90;999.90;;;;;;;2.39;79.15;100151.91;15814357;28;20129;-60
2021/01/12 02:55:51;;;;;;;1999.90;999.90;;;;;;;2.43;79.41;100132.88;15805393;28;20047;-59
2021/01/12 03:03:24;;;;;;;1999.90;999.90;;;;;;;2.51;79.05;100121.22;15818900;28;20052;-60
2021/01/12 03:10:58;;;;;;;1999.90;999.90;;;;;;;2.46;79.63;100115.75;15810803;28;20040;-62
2021/01/12 03:18:31;;;;;;;1999.90;999.90;;;;;;;2.59;79.58;100093.00;15837609;28;20126;-62
2021/01/12 03:26:06;;;;;;;1999.90;999.90;;;;;;;2.54;79.87;100087.56;15829857;28;20099;-62
2021/01/12 03:33:38;;;;;;;;;;;;;;;2.67;79.93;100072.25;15830674;28;20055;-62
2021/01/12 03:41:12;;;;;;;1999.90;999.90;;;;;;;2.57;80.04;100052.00;15767447;28;19924;-63
2021/01/12 03:48:45;;;;;;;1999.90;999.90;;;;;;;2.73;79.40;100047.09;15848746;28;20074;-59
2021/01/12 03:56:19;;;;;;;1999.90;999.90;;;;;;;2.80;79.07;100038.44;15818427;28;20123;-62
2021/01/12 04:03:52;;;;;;;1999.90;999.90;;;;;;;2.76;79.54;100029.16;15834479;28;20044;-61
2021/01/12 04:11:25;;;;;;;1999.90;999.90;;;;;;;2.73;79.94;100021.50;15802136;28;20067;-59
2021/01/12 04:18:58;;;;;;;1999.90;999.90;;;;;;;2.59;80.34;100016.69;15824316;28;20130;-62
2021/01/12 04:26:32;;;;;;;1999.90;999.90;;;;;;;2.77;79.75;99998.53;15809970;28;20152;-60
2021/01/12 04:34:04;;;;;;;;;;;;;;;3.07;79.27;99985.41;15824593;28;20052;-62
2021/01/12 04:41:38;;;;;;;1999.90;999.90;;;;;;;2.88;80.14;99977.97;15835734;28;19923;-61
2021/01/12 04:49:10;;;;;;;1999.90;999.90;;;;;;;2.79;80.09;99968.75;15854111;28;20075;-63
2021/01/12 04:56:44;;;;;;;1999.90;999.90;;;;;;;2.89;79.88;99952.06;15821454;28;20134;-62
2021/01/12 05:04:17;;;;;;;1999.90;999.90;;;;;;;2.84;79.56;99943.06;15815592;28;20055;-62
2021/01/12 05:11:54;;;;;;;1999.90;999.90;;;;;;;3.06;79.73;99925.88;15828326;28;20134;-60
2021/01/12 05:19:28;;;;;;;1999.90;999.90;;;;;;;2.78;80.23;99912.00;15824153;28;20055;-57
2021/01/12 05:27:06;;;;;;;1999.90;999.90;;;;;;;2.93;79.90;99899.94;15819663;28;20442;-62
2021/01/12 05:34:39;;;;;;;1999.90;999.90;;;;;;;3.01;79.87;99914.94;15837191;28;20532;-60
2021/01/12 05:42:12;;;;;;;1999.90;999.90;;;;;;;2.82;80.58;99891.03;15794477;28;20036;-61
2021/01/12 05:49:47;;;;;;;1999.90;999.90;;;;;;;2.90;80.40;99870.19;15803847;28;20052;-59
2021/01/12 05:57:23;;;;;;;1999.90;999.90;;;;;;;3.05;80.45;99875.44;15818672;28;20116;-60
2021/01/12 06:04:56;;;;;;;1999.90;999.90;;;;;;;3.01;79.88;99863.38;15848677;28;20462;-59
2021/01/12 06:12:33;;;;;;;1999.90;999.90;;;;;;;3.08;79.50;99858.31;15815612;28;20058;-61
2021/01/12 06:20:15;;;;;;;1999.90;999.90;;;;;;;3.20;79.63;99852.28;15828208;28;20397;-56
2021/01/12 06:27:49;;;;;;;1999.90;999.90;;;;;;;3.04;80.21;99845.44;15830647;28;20043;-59
2021/01/12 06:35:22;;;;;;;1999.90;999.90;;;;;;;3.28;78.89;99837.78;15824335;28;20040;-57
2021/01/12 06:42:58;;;;;;;1999.90;999.90;;;;;;;3.29;79.77;99842.19;15811520;28;20043;-57
2021/01/12 06:50:32;;;;;;;1999.90;999.90;;;;;;;3.33;79.63;99839.63;15813137;28;20385;-57
2021/01/12 06:58:08;;;;;;;1999.90;999.90;;;;;;;3.42;79.36;99819.31;15865564;28;20051;-56
2021/01/12 07:05:44;;;;;;;1999.90;999.90;;;;;;;3.51;78.94;99819.41;15869397;28;20135;-58
2021/01/12 07:13:19;;;;;;;1999.90;999.90;;;;;;;3.40;79.83;99812.47;15867908;28;20526;-57
2021/01/12 07:20:57;;;;;;;1999.90;999.90;;;;;;;3.65;78.61;99813.88;15850054;28;20051;-57
2021/01/12 07:28:33;;;;;;;1999.90;999.90;;;;;;;3.63;78.75;99800.38;15868658;28;20329;-60
2021/01/12 07:36:06;;;;;;;1999.90;999.90;;;;;;;3.58;78.66;99814.28;15867966;28;20173;-55
2021/01/12 07:43:39;;;;;;;1999.90;999.90;;;;;;;3.51;79.48;99805.59;15849037;28;20127;-56
2021/01/12 07:51:13;;;;;;;1999.90;999.90;;;;;;;3.53;79.41;99799.78;15865851;28;20297;-60
2021/01/12 07:58:47;;;;;;;1999.90;999.90;;;;;;;3.71;78.29;99796.09;15847238;28;20071;-61
2021/01/12 08:06:19;;;;;;;1999.90;999.90;;;;;;;3.45;79.62;99798.59;15846076;28;20047;-59
2021/01/12 08:14:04;;;;;;;1999.90;999.90;;;;;;;3.52;79.31;99793.44;15865152;28;20047;-55
2021/01/12 08:21:41;;;;;;;1999.90;999.90;;;;;;;3.64;78.38;99784.63;15846559;28;20058;-55
2021/01/12 08:29:20;;;;;;;1999.90;999.90;;;;;;;3.66;78.68;99774.94;15863394;28;20048;-57
2021/01/12 08:37:02;;;;;;;1999.90;999.90;;;;;;;3.39;79.40;99770.28;15845139;27;20079;-61
2021/01/12 08:44:43;;;;;;;1999.90;999.90;;;;;;;3.45;79.62;99769.06;15860758;28;20055;-62
2021/01/12 08:52:17;;;;;;;1999.90;999.90;;;;;;;3.55;79.76;99769.97;15842336;28;20040;-58
2021/01/12 08:59:51;;;;;;;1999.90;999.90;;;;;;;3.48;79.84;99762.09;15896198;27;20109;-56
2021/01/12 09:07:24;;;;;;;;;;;;;;;3.83;79.19;99745.88;15824498;28;20131;-60
2021/01/12 09:14:58;;;;;;;1999.90;999.90;;;;;;;3.89;78.29;99744.63;15863310;28;19923;-57
2021/01/12 09:22:30;;;;;;;;;;;;;;;3.87;78.91;99738.63;15846790;28;20101;-53
2021/01/12 09:30:05;;;;;;;1999.90;999.90;;;;;;;3.84;79.03;99744.75;15865368;28;20253;-57
2021/01/12 09:37:39;;;;;;;1999.90;999.90;;;;;;;4.15;78.38;99728.25;15877098;28;20487;-53
2021/01/12 09:45:13;;;;;;;1999.90;999.90;;;;;;;4.11;77.98;99727.25;15876131;28;20074;-53
2021/01/12 09:52:46;;;;;;;1999.90;999.90;;;;;;;3.97;78.68;99728.16;15872893;28;20055;-55
2021/01/12 10:00:21;;;;;;;1999.90;999.90;;;;;;;4.29;77.55;99718.78;15871845;28;20085;-58
2021/01/12 10:07:56;;;;;;;1999.90;999.90;;;;;;;4.21;77.72;99719.53;15853449;28;20044;-56
2021/01/12 10:15:30;;;;;;;1999.90;999.90;;;;;;;4.35;78.13;99725.78;15854183;28;20202;-61
2021/01/12 10:23:03;;;;;;;1999.90;999.90;;;;;;;3.89;79.02;99704.03;15872894;28;20070;-57
2021/01/12 10:30:37;;;;;;;1999.90;999.90;;;;;;;4.28;77.76;99703.34;15833925;28;20159;-60
2021/01/12 10:38:10;;;;;;;1999.90;999.90;;;;;;;4.21;78.05;99691.94;15848920;28;20040;-54
2021/01/12 10:45:44;;;;;;;1999.90;999.90;;;;;;;4.26;78.21;99686.25;15865907;28;20487;-57
2021/01/12 10:53:17;;;;;;;1999.90;999.90;;;;;;;4.31;78.04;99677.84;15850420;28;20416;-57
2021/01/12 11:00:51;;;;;;;1999.90;999.90;;;;;;;4.43;77.96;99665.41;15847962;28;20064;-55
2021/01/12 11:08:26;;;;;;;1999.90;999.90;;;;;;;4.53;78.49;99660.41;15866609;28;20509;-57
2021/01/12 11:15:59;;;;;;;1999.90;999.90;;;;;;;4.56;78.26;99639.63;15830204;28;20094;-58
2021/01/12 11:23:32;;;;;;;;;;;;;;;4.93;77.53;99636.31;15866793;28;20048;-60
2021/01/12 11:31:05;;;;;;;1999.90;999.90;;;;;;;4.95;77.78;99624.13;15847099;28;19976;-56
2021/01/12 11:38:38;;;;;;;1999.90;999.90;;;;;;;5.17;77.68;99622.06;15846784;28;20052;-57
2021/01/12 11:46:12;;;;;;;1999.90;999.90;;;;;;;5.41;76.83;99609.69;15846945;28;20040;-55
2021/01/12 11:53:45;;;;;;;;;;;;;;;5.43;76.92;99605.50;15864802;28;20040;-58
2021/01/12 12:01:20;;;;;;;1999.90;999.90;;;;;;;5.24;78.09;99604.16;15824102;28;20388;-55
2021/01/12 12:08:52;;;;;;;;;;;;;;;5.41;77.23;99604.97;15862795;28;20503;-58
2021/01/12 12:16:26;;;;;;;1999.90;999.90;;;;;;;5.30;77.21;99600.91;15860906;28;20351;-56
2021/01/12 12:24:02;;;;;;;1999.90;999.90;;;;;;;5.28;78.23;99592.13;15842659;28;20028;-54
2021/01/12 12:31:36;;;;;;;1999.90;999.90;;;;;;;5.54;77.50;99592.13;15829494;28;20505;-59
2021/01/12 12:39:09;;;;;;;1999.90;999.90;;;;;;;5.44;77.52;99586.94;15861134;28;20053;-54
2021/01/12 12:46:44;;;;;;;1999.90;999.90;;;;;;;5.59;77.33;99580.88;15858650;28;20397;-56
2021/01/12 12:54:20;;;;;;;1999.90;999.90;;;;;;;5.40;78.27;99597.00;15858865;28;20153;-57
2021/01/12 13:01:55;;;;;;;1999.90;999.90;;;;;;;5.49;78.32;99589.53;15854545;28;20086;-57
2021/01/12 13:09:30;;;;;;;1999.90;999.90;;;;;;;5.50;78.19;99604.97;15822695;28;20050;-56
2021/01/12 13:17:04;;;;;;;1999.90;999.90;;;;;;;5.72;78.35;99598.44;15859786;28;20044;-56
2021/01/12 13:24:38;;;;;;;1999.90;999.90;;;;;;;5.69;78.54;99593.56;15839833;28;20508;-59
2021/01/12 13:32:12;;;;;;;1999.90;999.90;;;;;;;5.65;78.79;99615.56;15836962;28;20104;-61
2021/01/12 13:39:45;;;;;;;1999.90;999.90;;;;;;;5.45;80.30;99617.03;15838395;28;20302;-55
2021/01/12 13:47:19;;;;;;;1999.90;999.90;;;;;;;5.77;79.29;99618.47;15825649;28;20490;-56
2021/01/12 13:54:55;;;;;;;1999.90;999.90;;;;;;;5.90;78.73;99624.16;15848129;28;20055;-56
2021/01/12 14:02:29;;;;;;;1999.90;999.90;;;;;;;5.88;78.00;99631.97;15831616;28;20052;-60
2021/01/12 14:10:03;;;;;;;1999.90;999.90;;;;;;;6.20;77.53;99652.81;15831597;28;20051;-56
2021/01/12 14:17:48;;;;;;;1999.90;999.90;;;;;;;6.38;76.60;99662.69;15834691;28;20126;-57
2021/01/12 14:25:20;;;;;;;1999.90;999.90;;;;;;;6.16;77.23;99679.53;15832090;28;20078;-55
2021/01/12 14:32:55;;;;;;;1999.90;999.90;;;;;;;6.10;77.22;99692.72;15828601;27;20050;-59
2021/01/12 14:40:30;;;;;;;1999.90;999.90;;;;;;;6.14;76.57;99715.84;15839671;28;20063;-53
2021/01/12 14:48:05;;;;;;;1999.90;999.90;;;;;;;5.91;77.28;99731.03;15861820;28;20217;-54
2021/01/12 14:55:38;;;;;;;1999.90;999.90;;;;;;;5.80;75.79;99741.56;15860349;28;20420;-59
2021/01/12 15:03:12;;;;;;;1999.90;999.90;;;;;;;5.72;76.70;99751.50;15858415;28;20482;-52
2021/01/12 15:10:45;;;;;;;1999.90;999.90;;;;;;;5.76;75.89;99765.50;15849823;28;20039;-57
2021/01/12 15:18:20;;;;;;;1999.90;999.90;;;;;;;5.60;76.21;99775.41;15839175;28;20326;-54
2021/01/12 15:25:53;;;;;;;;;;;;;;;5.59;76.35;99793.16;15865171;28;20044;-55
2021/01/12 15:33:27;;;;;;;1999.90;999.90;;;;;;;5.49;76.53;99805.34;15853494;28;19988;-56
2021/01/12 15:40:59;;;;;;;;;;;;;;;5.32;76.32;99797.81;15863547;28;20047;-55
2021/01/12 15:48:34;;;;;;;1999.90;999.90;;;;;;;4.99;75.55;99813.91;15817931;28;19943;-56
2021/01/12 15:56:08;;;;;;;1999.90;999.90;;;;;;;4.65;75.67;99822.84;15858858;28;20139;-57
2021/01/12 16:03:43;;;;;;;1999.90;999.90;;;;;;;4.66;75.51;99829.19;15802168;28;20067;-58
2021/01/12 16:11:26;;;;;;;1999.90;999.90;;;;;;;4.48;76.74;99836.53;15826062;28;20064;-53
2021/01/12 16:19:02;;;;;;;1999.90;999.90;;;;;;;4.31;76.45;99846.31;15821761;28;20044;-56
2021/01/12 16:26:35;;;;;;;1999.90;999.90;;;;;;;4.05;76.92;99848.84;15805471;28;20048;-54
2021/01/12 16:34:10;;;;;;;1999.90;999.90;;;;;;;4.36;76.17;99867.47;15854183;28;20418;-54
2021/01/12 16:41:45;;;;;;;1999.90;999.90;;;;;;;4.25;77.42;99868.84;15815338;28;20036;-53
2021/01/12 16:49:26;;;;;;;1999.90;999.90;;;;;;;4.24;76.26;99865.25;15822085;28;20043;-55
2021/01/12 16:57:03;;;;;;;1999.90;999.90;;;;;;;4.22;76.87;99866.72;15816018;28;20135;-52
2021/01/12 17:04:48;;;;;;;1999.90;999.90;;;;;;;4.17;75.94;99873.16;15801252;28;20059;-52
2021/01/12 17:12:23;;;;;;;1999.90;999.90;;;;;;;3.93;76.06;99881.69;15781365;28;20211;-54
2021/01/12 17:19:58;;;;;;;1999.90;999.90;;;;;;;3.65;77.42;99886.44;15837518;28;20036;-54
2021/01/12 17:27:36;;;;;;;1999.90;999.90;;;;;;;3.74;76.70;99887.31;15845089;28;20158;-55
2021/01/12 17:35:12;;;;;;;1999.90;999.90;;;;;;;3.63;77.10;99894.19;15833752;28;20518;-56
2021/01/12 17:42:48;;;;;;;1999.90;999.90;;;;;;;3.57;77.08;99891.84;15831121;28;20043;-57
2021/01/12 17:50:23;;;;;;;1999.90;999.90;;;;;;;3.82;76.17;99887.75;15837926;28;20067;-57
2021/01/12 17:57:58;;;;;;;1999.90;999.90;;;;;;;3.70;75.59;99891.84;15839202;28;20377;-58
2021/01/12 18:05:43;;;;;;;1999.90;999.90;;;;;;;3.57;76.78;99895.41;15850847;28;20373;-57
2021/01/12 18:13:40;;;;;;;1999.90;999.90;;;;;;;3.87;76.21;99912.47;15868346;28;20043;-57
2021/01/12 18:21:28;;;;;;;1999.90;999.90;;;;;;;3.92;76.06;99920.63;15814133;28;20180;-56
2021/01/12 18:29:05;;;;;;;1999.90;999.90;;;;;;;4.01;76.19;99930.66;15834766;28;20166;-57
2021/01/12 18:36:41;;;;;;;1999.90;999.90;;;;;;;4.21;76.08;99909.25;15865491;27;20069;-60
2021/01/12 18:44:19;;;;;;;1999.90;999.90;;;;;;;3.97;76.63;99921.38;15880867;27;20047;-60
2021/01/12 18:52:11;;;;;;;1999.90;999.90;;;;;;;4.14;75.94;99937.28;15871754;27;20189;-57
2021/01/12 18:59:44;;;;;;;1999.90;999.90;;;;;;;4.00;77.22;99931.78;15832615;28;20387;-58
2021/01/12 19:07:20;;;;;;;1999.90;999.90;;;;;;;4.10;76.73;99944.56;15808351;28;20102;-57
2021/01/12 19:14:53;;;;;;;1999.90;999.90;;;;;;;3.90;77.94;99947.75;15824948;28;20047;-57
2021/01/12 19:22:27;;;;;;;1999.90;999.90;;;;;;;4.22;76.02;99938.50;15837053;28;20074;-57
2021/01/12 19:29:59;;;;;;;;;;;;;;;4.30;75.75;99937.78;15823152;28;20166;-59
2021/01/12 19:37:35;;;;;;;1999.90;999.90;;;;;;;4.07;77.24;99944.38;15831446;28;19939;-59
2021/01/12 19:45:08;;;;;;;1999.90;999.90;;;;;;;3.55;79.62;99965.81;15804800;28;20051;-59
2021/01/12 19:52:43;;;;;;;1999.90;999.90;;;;;;;4.12;78.62;99992.00;15818419;28;20347;-60
2021/01/12 20:00:17;;;;;;;1999.90;999.90;;;;;;;4.12;77.63;99994.75;15835866;28;20048;-58
2021/01/12 20:07:59;;;;;;;1999.90;999.90;;;;;;;4.17;77.36;100008.47;15837602;28;20069;-56
2021/01/12 20:15:32;;;;;;;1999.90;999.90;;;;;;;4.03;75.56;100047.09;15839615;28;20059;-62
2021/01/12 20:23:08;;;;;;;1999.90;999.90;;;;;;;3.99;75.71;100064.59;15849152;28;20051;-60
2021/01/12 20:30:42;;;;;;;1999.90;999.90;;;;;;;3.87;73.93;100083.59;15816303;28;20117;-56
2021/01/12 20:38:19;;;;;;;1999.90;999.90;;;;;;;3.51;75.23;100102.69;15806113;28;20101;-60
2021/01/12 20:45:56;;;;;;;1999.90;999.90;;;;;;;3.50;74.96;100121.19;15826462;28;20413;-60
2021/01/12 20:53:34;;;;;;;;;;;;;;;3.52;75.44;100126.41;15861726;28;20114;-57
2021/01/12 21:01:09;;;;;;;1999.90;999.90;;;;;;;3.09;76.30;100126.50;15801746;28;20384;-52
2021/01/12 21:08:43;;;;;;;1999.90;999.90;;;;;;;3.40;74.85;100140.66;15855432;28;20101;-55
2021/01/12 21:16:16;;;;;;;1999.90;999.90;;;;;;;3.28;75.04;100143.88;15789285;28;20048;-52
2021/01/12 21:23:50;;;;;;;1999.90;999.90;;;;;;;3.27;74.95;100150.50;15811422;28;20138;-59
2021/01/12 21:31:30;;;;;;;1999.90;999.90;;;;;;;3.31;75.15;100164.50;15835085;28;20308;-57
2021/01/12 21:39:04;;;;;;;1999.90;999.90;;;;;;;3.48;74.49;100187.69;15858577;28;20044;-57
2021/01/12 21:46:38;;;;;;;1999.90;999.90;;;;;;;3.69;73.61;100201.19;15814303;28;20485;-58
2021/01/12 21:54:11;;;;;;;;;;;;;;;3.46;73.97;100200.97;15836540;27;20067;-57
2021/01/12 22:01:48;;;;;;;1999.90;999.90;;;;;;;3.17;74.81;100220.41;15853505;28;19919;-60
2021/01/12 22:09:22;;;;;;;1999.90;999.90;;;;;;;3.21;74.63;100211.53;15854487;28;20068;-55
2021/01/12 22:16:55;;;;;;;1999.90;999.90;;;;;;;2.97;75.50;100223.41;15872017;28;20544;-54
2021/01/12 22:24:28;;;;;;;1999.90;999.90;;;;;;;2.98;75.85;100232.50;15870950;28;20377;-55
2021/01/12 22:32:01;;;;;;;1999.90;999.90;;;;;;;2.99;75.51;100236.88;15871041;28;20173;-56
2021/01/12 22:39:35;;;;;;;1999.90;999.90;;;;;;;2.98;75.79;100249.84;15870079;28;20043;-58
2021/01/12 22:47:09;;;;;;;;;;;;;;;3.24;75.01;100260.59;15870372;28;20485;-57
2021/01/12 22:54:43;;;;;;;1999.90;999.90;;;;;;;3.11;75.03;100259.34;15835058;28;19924;-53
2021/01/12 23:02:16;;;;;;;;;;;;;;;3.06;75.35;100279.53;15832446;28;20042;-59
2021/01/12 23:09:51;;;;;;;1999.90;999.90;;;;;;;2.67;76.40;100285.19;15808082;28;20011;-57
2021/01/12 23:17:28;;;;;;;1999.90;999.90;;;;;;;2.78;76.52;100291.41;15807130;28;20361;-56
2021/01/12 23:25:01;;;;;;;1999.90;999.90;;;;;;;3.08;75.40;100296.59;15845233;28;20087;-57
2021/01/12 23:32:36;;;;;;;1999.90;999.90;;;;;;;2.80;75.89;100294.69;15835231;28;20394;-54
2021/01/12 23:40:11;;;;;;;1999.90;999.90;;;;;;;2.76;75.85;100291.72;15847052;28;20044;-56
2021/01/12 23:47:44;;;;;;;1999.90;999.90;;;;;;;2.93;74.80;100296.78;15805191;28;20120;-55
2021/01/12 23:55:18;;;;;;;1999.90;999.90;;;;;;;2.88;75.33;100305.91;15791164;28;20142;-54
